Tuesday, April 24, 2018, 4:42 AM EDT
Back to Local

KCDW, Caldwell Essex County Airport

Location: Fairfield, NJ, United States Lat: 40.883
Local Time: 4:42 AM EDT ( 8:42 GMT) Lon: -74.283
Time Zone: US/Eastern Elev: 173 ft

Show me the last for .
Show Decoded

2018-04-24 03:53 METAR KCDW 240753Z AUTO 00000KT 10SM CLR 04/02 A3041 RMK AO2 SLP302 T00440017 =
2018-04-24 02:53 METAR KCDW 240653Z AUTO 00000KT 10SM CLR 04/03 A3040 RMK AO2 SLP301 T00440028 =
2018-04-24 01:53 METAR KCDW 240553Z AUTO 00000KT 10SM CLR 06/03 A3041 RMK AO2 SLP304 T00610033
                 10122 20061 56008 =
2018-04-24 00:53 METAR KCDW 240453Z AUTO 00000KT 10SM CLR 07/03 A3042 RMK AO2 SLP307 T00670033
                 401940022 =
2018-04-23 23:53 METAR KCDW 240353Z AUTO 00000KT 10SM CLR 07/03 A3043 RMK AO2 SLP308 T00720028 =
2018-04-23 22:53 METAR KCDW 240253Z AUTO 00000KT 10SM CLR 08/02 A3044 RMK AO2 SLP313 T00830022
                 50005 =
2018-04-23 21:53 METAR KCDW 240153Z AUTO 00000KT 10SM CLR 10/02 A3044 RMK AO2 SLP314 T01000017 =
2018-04-23 20:53 METAR KCDW 240053Z AUTO 08005KT 10SM CLR 10/02 A3043 RMK AO2 SLP310 T01000017 =
2018-04-23 19:53 METAR KCDW 232353Z AUTO 12004KT 10SM CLR 12/00 A3042 RMK AO2 SLP308 T01220000
                 10194 20122 53002 =
2018-04-23 18:53 METAR KCDW 232253Z VRB06KT 10SM CLR 13/01 A3041 RMK AO2 SLP305 T01330006 =
2018-04-23 17:53 METAR KCDW 232153Z 16007KT 130V190 10SM CLR 16/M01 A3041 RMK AO2 SLP302
                 T01561006 =
2018-04-23 16:53 METAR KCDW 232053Z 15011KT 10SM CLR 17/M02 A3042 RMK AO2 SLP306 T01721017 56008
                 =
2018-04-23 15:53 METAR KCDW 231953Z 17011KT 10SM CLR 18/M03 A3042 RMK AO2 SLP306 T01831028 =
2018-04-23 14:53 METAR KCDW 231853Z 16004KT 10SM CLR 19/M06 A3042 RMK AO2 SLP308 T01891056 =
2018-04-23 13:53 METAR KCDW 231753Z VRB04KT 10SM CLR 18/M08 A3044 RMK AO2 SLP313 T01781083 10183
                 20083 58016 =
2018-04-23 12:53 METAR KCDW 231653Z 14004KT 10SM CLR 17/M06 A3046 RMK AO2 SLP319 T01671061 =
2018-04-23 11:53 METAR KCDW 231553Z VRB06KT 10SM CLR 17/M04 A3047 RMK AO2 SLP325 T01671044 =
2018-04-23 10:53 METAR KCDW 231453Z 09008KT 10SM CLR 15/M04 A3049 RMK AO2 SLP329 T01501039 50005
                 =
2018-04-23 09:53 METAR KCDW 231353Z 07007KT 10SM CLR 13/M04 A3049 RMK AO2 SLP330 T01331044 =
2018-04-23 08:53 METAR KCDW 231253Z 06008KT 10SM CLR 11/M05 A3048 RMK AO2 SLP327 T01111050 =
2018-04-23 07:53 METAR KCDW 231153Z AUTO 06003KT 10SM CLR 08/M01 A3047 RMK AO2 SLP324 T00831011
                 10083 20022 51012 =
2018-04-23 06:53 METAR KCDW 231053Z AUTO 00000KT 10SM CLR 04/M01 A3046 RMK AO2 SLP321 T00441011 =
2018-04-23 05:53 METAR KCDW 230953Z AUTO 00000KT 10SM CLR 03/M01 A3045 RMK AO2 SLP316 T00281011 =
2018-04-23 04:53 METAR KCDW 230853Z AUTO 00000KT 10SM CLR 03/M01 A3044 RMK AO2 SLP312 T00281006
                 53009 =

Support USWX by starting your Amazon purchase here.